Time;durP1;ratioP1;P1;durP2;ratioP2;P2;SDS_P1;SDS_P2;PMS_P1;PMS_P2;Temp;Humidity;BMP_temperature;BMP_pressure;BME280_temperature;BME280_humidity;BME280_pressure;Samples;Min_cycle;Max_cycle;Signal;HPM_P1;HPM_P2
2022/08/24 00:00:21;;;;;;;5.25;3.55;;;17.40;57.60;;;13.40;82.03;95662.41;4972535;28;20022;-50
2022/08/24 00:02:48;;;;;;;7.40;3.85;;;17.40;58.00;;;13.42;81.85;95661.06;4956110;28;20088;-49
2022/08/24 00:05:20;;;;;;;5.03;3.78;;;17.40;57.90;;;13.44;81.74;95658.09;4970957;28;20054;-50
2022/08/24 00:07:50;;;;;;;5.00;3.95;;;17.40;58.00;;;13.42;81.32;95662.94;4963258;28;20026;-49
2022/08/24 00:10:17;;;;;;;6.25;3.92;;;17.40;58.10;;;13.43;80.77;95656.50;4955264;28;20026;-47
2022/08/24 00:12:48;;;;;;;4.57;3.75;;;17.30;58.00;;;13.46;80.19;95660.50;4937639;28;20492;-51
2022/08/24 00:15:15;;;;;;;7.32;4.30;;;17.30;58.10;;;13.45;80.29;95654.38;4958325;28;20026;-51
2022/08/24 00:17:43;;;;;;;7.43;3.80;;;17.30;58.10;;;13.48;80.19;95661.03;4954196;28;20026;-46
2022/08/24 00:20:14;;;;;;;8.77;4.55;;;17.30;58.10;;;13.49;79.96;95662.63;4937409;28;20474;-52
2022/08/24 00:22:50;;;;;;;4.90;3.90;;;17.30;58.10;;;13.47;80.18;95656.75;4939203;28;20034;-51
2022/08/24 00:25:22;;;;;;;5.78;4.13;;;17.30;58.20;;;13.41;80.25;95659.47;4953669;28;20033;-51
2022/08/24 00:27:48;;;;;;;5.07;4.30;;;17.30;58.20;;;13.37;80.40;95655.75;4943341;28;20117;-49
2022/08/24 00:30:19;;;;;;;8.40;4.07;;;17.20;58.10;;;13.36;80.30;95661.41;4973356;28;20284;-48
2022/08/24 00:32:48;;;;;;;7.13;4.07;;;17.20;58.30;;;13.35;80.12;95655.25;4972120;28;20041;-52
2022/08/24 00:35:18;;;;;;;4.78;4.22;;;17.30;58.30;;;13.35;80.42;95654.44;4955575;28;20097;-51
2022/08/24 00:37:47;;;;;;;4.25;3.85;;;17.30;58.30;;;13.38;80.19;95648.50;4973503;28;20532;-52
2022/08/24 00:40:34;;;;;;;8.18;4.40;;;17.30;58.30;;;13.39;80.25;95647.47;4969723;28;20072;-46
2022/08/24 00:43:05;;;;;;;5.57;3.80;;;17.30;58.40;;;13.41;80.29;95647.97;4952543;28;20057;-51
2022/08/24 00:45:47;;;;;;;4.90;3.90;;;17.30;58.30;;;13.42;79.78;95653.03;4952395;28;20884;-51
2022/08/24 00:48:24;;;;;;;5.57;4.00;;;17.30;58.50;;;13.43;79.48;95654.63;4947958;28;20030;-50
2022/08/24 00:51:13;;;;;;;4.28;3.63;;;17.30;58.40;;;13.45;79.80;95651.69;4945214;28;20022;-46
2022/08/24 00:53:49;;;;;;;4.55;3.95;;;17.30;58.50;;;13.43;80.17;95656.50;4971598;28;20026;-51
2022/08/24 00:56:47;;;;;;;6.30;3.95;;;17.30;58.40;;;13.39;80.55;95655.47;4971450;28;20130;-48
2022/08/24 00:59:33;;;;;;;4.38;3.78;;;17.30;58.50;;;13.46;80.42;95655.94;4969306;28;20042;-52
2022/08/24 01:02:30;;;;;;;5.75;3.80;;;17.30;58.40;;;13.46;80.43;95649.81;4956987;28;20034;-49
2022/08/24 01:05:04;;;;;;;7.18;3.70;;;17.30;58.40;;;13.43;80.31;95653.84;4971979;28;20125;-49
2022/08/24 01:07:37;;;;;;;5.57;4.25;;;17.30;58.40;;;13.37;80.73;95654.94;4970022;28;20030;-48
2022/08/24 01:10:28;;;;;;;6.63;3.90;;;17.30;58.50;;;13.33;81.12;95653.94;4951979;28;20401;-49
2022/08/24 01:13:01;;;;;;;7.47;4.45;;;17.30;58.60;;;13.34;80.85;95648.28;4950536;28;20108;-48
2022/08/24 01:15:38;;;;;;;5.90;4.00;;;17.30;58.60;;;13.33;81.68;95651.25;4951671;28;20026;-50
2022/08/24 01:21:20;;;;;;;6.43;4.20;;;17.30;58.80;;;13.33;80.92;95644.03;4971561;28;20081;-48
2022/08/24 01:23:57;;;;;;;5.10;4.00;;;17.20;58.70;;;13.33;81.05;95648.56;4972211;28;20432;-51
2022/08/24 01:26:45;;;;;;;4.95;4.35;;;17.20;58.70;;;13.26;81.27;95648.91;4971755;28;20747;-52
2022/08/24 01:29:27;;;;;;;5.10;3.90;;;17.20;58.80;;;13.16;82.17;95649.75;4955564;28;20026;-45
2022/08/24 01:31:54;;;;;;;8.60;4.25;;;17.20;58.80;;;13.15;82.82;95648.13;4954792;28;20102;-46
2022/08/24 01:34:26;;;;;;;9.48;4.40;;;17.20;58.80;;;13.11;82.98;95646.31;4970644;28;20477;-51
2022/08/24 01:36:56;;;;;;;6.30;4.10;;;17.10;59.00;;;13.14;81.96;95645.75;4971561;28;20080;-51
2022/08/24 01:39:35;;;;;;;5.57;3.58;;;17.10;59.00;;;13.16;81.73;95641.72;4971275;28;20380;-47
2022/08/24 01:42:02;;;;;;;6.78;3.58;;;17.10;59.10;;;13.14;81.91;95640.41;4937641;28;20038;-50
2022/08/24 01:44:33;;;;;;;5.35;4.03;;;17.10;59.60;;;13.11;82.03;95632.94;4952889;28;20100;-48
2022/08/24 01:47:07;;;;;;;4.72;3.50;;;17.10;59.10;;;13.10;82.13;95636.66;4950971;28;20030;-46
2022/08/24 01:49:45;;;;;;;6.70;4.07;;;17.10;59.30;;;13.13;80.81;95636.94;4951864;28;20027;-48
2022/08/24 01:52:24;;;;;;;5.00;3.92;;;17.00;59.20;;;13.20;80.16;95637.41;4935714;28;20517;-47
2022/08/24 01:54:56;;;;;;;4.93;3.70;;;17.10;59.30;;;13.24;80.44;95634.97;4935145;28;20358;-46
2022/08/24 01:57:26;;;;;;;6.95;3.95;;;17.10;59.20;;;13.21;80.94;95632.84;4952553;28;20030;-47
2022/08/24 01:59:55;;;;;;;4.57;3.95;;;17.00;59.10;;;13.18;80.49;95628.84;4967343;28;20023;-47
2022/08/24 02:02:30;;;;;;;6.15;3.80;;;17.10;59.20;;;13.23;80.24;95637.94;4967337;28;20081;-48
2022/08/24 02:05:03;;;;;;;6.75;3.67;;;17.10;59.30;;;13.30;79.66;95635.75;4934707;29;20117;-48
2022/08/24 02:07:31;;;;;;;6.30;4.15;;;17.10;59.30;;;13.34;79.85;95631.44;4932781;28;20469;-46
2022/08/24 02:09:58;;;;;;;4.80;3.83;;;17.20;59.20;;;13.35;79.61;95631.16;4954986;28;20025;-45
2022/08/24 02:12:25;;;;;;;6.55;3.65;;;17.20;59.20;;;13.37;79.22;95636.22;4950808;28;20391;-52
2022/08/24 02:14:51;;;;;;;4.00;3.60;;;17.20;59.10;;;13.37;79.34;95641.56;4919359;28;20050;-49
2022/08/24 02:17:19;;;;;;;5.53;4.05;;;17.20;59.10;;;13.33;79.44;95643.22;4951153;28;20683;-49
2022/08/24 02:19:45;;;;;;;4.47;3.90;;;17.20;59.00;;;13.25;80.18;95641.94;4951109;28;20544;-50
2022/08/24 02:22:18;;;;;;;4.28;3.88;;;17.20;59.10;;;13.18;80.32;95650.25;4966938;28;20031;-46
2022/08/24 02:24:44;;;;;;;5.80;4.18;;;17.20;59.00;;;13.11;80.60;95646.31;4934374;28;20018;-51
2022/08/24 02:27:12;;;;;;;4.65;3.83;;;17.10;59.00;;;13.02;81.05;95648.75;4951325;29;20074;-48
2022/08/24 02:29:43;;;;;;;5.50;4.18;;;17.10;59.00;;;12.95;81.25;95642.94;4952215;28;20069;-47
2022/08/24 02:32:12;;;;;;;4.88;4.15;;;17.00;59.70;;;12.85;82.08;95651.81;4952348;28;20042;-50
2022/08/24 02:34:39;;;;;;;4.57;4.18;;;17.00;59.20;;;12.80;82.27;95645.72;4951794;28;20102;-48
2022/08/24 02:37:05;;;;;;;6.00;4.22;;;16.90;59.30;;;12.77;82.25;95647.06;4951791;29;20485;-47
2022/08/24 02:39:34;;;;;;;5.72;4.50;;;16.80;59.30;;;12.71;82.53;95651.63;4934968;29;20023;-49
2022/08/24 02:42:04;;;;;;;10.13;4.57;;;16.80;59.40;;;12.69;83.01;95651.13;4950954;29;20107;-48
2022/08/24 02:44:30;;;;;;;6.03;4.35;;;16.80;59.60;;;12.66;83.34;95638.31;4968813;28;20073;-48
2022/08/24 02:46:56;;;;;;;6.03;4.55;;;16.70;59.60;;;12.63;83.54;95643.38;4955770;28;20563;-51
2022/08/24 02:49:25;;;;;;;5.55;4.72;;;16.70;59.80;;;12.54;84.76;95645.84;4955793;28;20018;-50
2022/08/24 02:51:51;;;;;;;7.95;4.57;;;16.70;59.90;;;12.52;85.28;95645.31;4955340;28;20054;-47
2022/08/24 02:54:18;;;;;;;6.18;4.97;;;16.60;59.90;;;12.54;85.41;95643.19;4954575;28;20022;-47
2022/08/24 02:56:45;;;;;;;6.88;4.57;;;16.60;60.00;;;12.61;84.84;95645.53;4954239;28;20033;-51
2022/08/24 02:59:12;;;;;;;6.43;4.63;;;16.60;60.30;;;12.65;85.07;95642.03;4954604;28;20044;-47
2022/08/24 03:01:39;;;;;;;7.75;4.60;;;16.60;60.40;;;12.71;85.13;95640.13;4955727;28;20504;-47
2022/08/24 03:04:09;;;;;;;5.32;4.53;;;16.60;60.60;;;12.76;85.19;95644.66;4953070;28;20042;-43
2022/08/24 03:06:36;;;;;;;5.85;4.57;;;16.60;60.90;;;12.82;84.64;95636.34;4943938;28;20693;-46
2022/08/24 03:09:02;;;;;;;7.80;4.63;;;16.60;60.90;;;12.89;84.63;95642.16;4967499;28;20401;-48
2022/08/24 03:11:38;;;;;;;5.22;4.28;;;16.70;61.00;;;13.09;83.69;95638.53;4970352;28;20030;-47
2022/08/24 03:14:07;;;;;;;6.25;3.85;;;16.80;61.20;;;13.20;83.35;95644.63;4955567;28;20026;-51
2022/08/24 03:16:33;;;;;;;8.80;4.43;;;16.80;61.20;;;13.35;82.30;95638.38;4937136;28;20096;-53
2022/08/24 03:18:59;;;;;;;6.57;4.18;;;16.90;61.00;;;13.48;81.57;95631.59;4938112;28;20409;-50
2022/08/24 03:21:28;;;;;;;4.90;3.85;;;17.00;61.00;;;13.53;81.09;95634.22;4954234;28;20034;-47
2022/08/24 03:24:00;;;;;;;5.63;3.92;;;17.10;60.90;;;13.58;80.46;95634.19;4970080;28;20596;-50
2022/08/24 03:26:28;;;;;;;5.85;3.83;;;17.20;60.80;;;13.62;80.40;95649.38;4954870;28;20042;-49
2022/08/24 03:28:54;;;;;;;6.97;4.25;;;17.30;60.60;;;13.61;80.05;95647.00;4953884;28;20456;-50
2022/08/24 03:31:21;;;;;;;7.75;4.40;;;17.30;60.40;;;13.53;80.58;95655.63;4953778;28;20030;-46
2022/08/24 03:33:47;;;;;;;5.30;4.80;;;17.30;60.20;;;13.42;80.07;95646.91;4953478;28;20109;-50
2022/08/24 03:36:14;;;;;;;8.98;4.95;;;17.30;60.00;;;13.29;79.66;95642.19;4954722;28;20130;-50
2022/08/24 03:38:45;;;;;;;6.82;4.93;;;17.30;59.80;;;13.12;80.45;95646.00;4938052;28;20023;-49
2022/08/24 03:41:11;;;;;;;8.80;4.72;;;17.20;59.90;;;13.00;81.22;95645.56;4955099;28;20085;-46
2022/08/24 03:43:45;;;;;;;7.18;4.50;;;17.10;59.80;;;12.84;83.87;95646.75;4953457;28;20032;-50
2022/08/24 03:46:15;;;;;;;10.02;4.75;;;17.00;59.90;;;12.77;84.87;95644.38;4954690;28;20417;-46
2022/08/24 03:48:43;;;;;;;7.18;5.00;;;17.00;60.10;;;12.85;84.41;95640.31;4954723;28;20379;-49
2022/08/24 03:51:23;;;;;;;7.65;5.78;;;16.90;60.30;;;12.89;83.99;95639.50;4953905;28;20026;-51
2022/08/24 03:53:51;;;;;;;5.00;4.38;;;16.90;60.70;;;12.85;84.31;95648.34;4953489;28;20038;-52
2022/08/24 03:56:18;;;;;;;8.38;4.72;;;16.80;60.90;;;12.83;84.25;95647.81;4952413;28;20510;-49
2022/08/24 03:58:45;;;;;;;7.65;5.55;;;16.80;60.60;;;12.76;84.58;95648.13;4937497;28;20030;-46
2022/08/24 04:01:13;;;;;;;6.43;4.38;;;16.70;60.60;;;12.67;85.13;95645.25;4954801;28;20029;-45
2022/08/24 04:03:45;;;;;;;6.57;4.75;;;16.70;60.80;;;12.59;85.43;95651.16;4952829;28;20497;-48
2022/08/24 04:06:16;;;;;;;6.72;5.15;;;16.70;61.00;;;12.51;85.61;95646.41;4956017;28;20100;-47
2022/08/24 04:08:44;;;;;;;5.55;4.72;;;16.60;60.90;;;12.41;86.58;95644.56;4983716;28;20122;-44
2022/08/24 04:11:22;;;;;;;8.75;5.75;;;16.50;61.00;;;12.34;86.76;95646.72;4953255;28;20030;-47
2022/08/24 04:13:55;;;;;;;8.82;5.97;;;16.40;61.30;;;12.27;87.01;95648.91;4954449;28;20050;-46
2022/08/24 04:16:23;;;;;;;6.68;5.25;;;16.40;61.30;;;12.20;88.15;95653.75;4968655;28;20026;-46
2022/08/24 04:18:52;;;;;;;8.90;6.95;;;16.30;61.40;;;12.17;88.62;95651.63;4953056;28;20080;-49
2022/08/24 04:21:29;;;;;;;8.93;5.90;;;16.30;61.80;;;12.09;88.87;95649.50;4953871;28;20026;-44
2022/08/24 04:23:57;;;;;;;7.95;6.25;;;16.20;62.20;;;12.00;89.75;95647.41;4953054;28;20168;-49
2022/08/24 04:26:29;;;;;;;7.50;6.70;;;16.10;62.00;;;11.98;90.76;95652.19;4952518;28;20027;-52
2022/08/24 04:28:56;;;;;;;12.55;7.38;;;16.10;62.30;;;11.92;90.70;95657.81;4937091;28;20077;-47
2022/08/24 04:31:24;;;;;;;9.85;6.63;;;16.00;62.40;;;11.86;90.81;95672.25;4953689;28;20041;-47
2022/08/24 04:33:52;;;;;;;7.97;6.85;;;16.00;62.60;;;11.88;91.93;95657.56;4953817;28;20018;-46
2022/08/24 04:36:22;;;;;;;8.73;6.95;;;15.90;62.80;;;11.87;91.57;95658.63;4952270;28;20733;-44
2022/08/24 04:38:51;;;;;;;10.25;7.60;;;15.90;63.00;;;11.84;91.40;95661.00;4952935;28;20015;-47
2022/08/24 04:41:20;;;;;;;12.63;7.72;;;15.90;63.10;;;11.83;90.83;95660.22;4952665;28;20370;-45
2022/08/24 04:43:49;;;;;;;11.20;7.53;;;15.90;63.30;;;11.78;91.15;95662.88;4969028;28;20022;-46
2022/08/24 04:46:19;;;;;;;8.52;7.60;;;15.90;63.50;;;11.73;90.53;95662.91;4952944;28;20084;-47
2022/08/24 04:48:49;;;;;;;10.27;8.30;;;15.90;63.60;;;11.69;90.89;95659.16;4968629;28;20526;-47
2022/08/24 04:51:18;;;;;;;9.82;7.68;;;15.80;63.60;;;11.62;90.52;95661.31;4968635;28;20058;-47
2022/08/24 04:53:46;;;;;;;8.77;7.78;;;15.80;64.40;;;11.53;90.24;95667.22;4952477;28;20061;-49
2022/08/24 04:56:18;;;;;;;13.70;8.30;;;15.80;63.50;;;11.44;89.69;95666.16;4953591;28;20026;-45
2022/08/24 04:58:44;;;;;;;10.98;7.22;;;15.80;63.60;;;11.37;89.77;95670.91;4952417;28;20022;-46
2022/08/24 05:01:20;;;;;;;7.80;6.80;;;15.70;63.40;;;11.35;89.83;95673.06;4952105;28;20027;-46
2022/08/24 05:03:50;;;;;;;7.68;6.65;;;15.70;63.60;;;11.49;91.00;95670.66;4968969;23;20027;-47
2022/08/24 05:06:29;;;;;;;8.95;6.63;;;15.70;63.60;;;11.71;91.11;95676.50;5011281;28;20091;-51
2022/08/24 05:09:04;;;;;;;6.95;6.25;;;15.70;63.80;;;11.92;90.67;95681.84;4980743;28;20037;-50
2022/08/24 05:11:30;;;;;;;9.27;6.90;;;15.80;63.70;;;12.11;89.66;95676.72;5009746;28;20079;-51
2022/08/24 05:14:02;;;;;;;8.20;6.63;;;15.80;63.50;;;12.36;89.79;95673.19;5010566;28;20027;-50
2022/08/24 05:16:31;;;;;;;12.98;6.15;;;15.90;63.70;;;12.62;88.57;95680.00;4993150;28;20036;-49
2022/08/24 05:18:57;;;;;;;6.10;5.50;;;16.00;63.50;;;12.87;87.25;95686.28;4984847;28;20028;-46
2022/08/24 05:21:24;;;;;;;5.47;4.95;;;16.20;63.50;;;13.11;87.32;95676.50;4967538;28;20014;-49
2022/08/24 05:23:50;;;;;;;6.15;5.38;;;16.30;63.30;;;13.36;85.62;95688.94;4998463;28;20025;-51
2022/08/24 05:26:23;;;;;;;9.68;5.35;;;16.50;63.10;;;13.48;82.58;95682.44;4971620;28;20021;-48
2022/08/24 05:28:58;;;;;;;;;;;16.70;62.90;;;13.52;81.86;95678.91;4986969;28;20467;-52
2022/08/24 05:31:30;;;;;;;5.07;4.53;;;16.80;62.20;;;13.72;81.05;95682.50;4985186;28;19932;-53
2022/08/24 05:34:03;;;;;;;5.57;5.03;;;17.10;62.10;;;13.98;80.70;95675.03;5003353;28;20025;-52
2022/08/24 05:36:37;;;;;;;7.00;4.60;;;17.30;61.80;;;14.26;80.25;95686.78;5010466;28;20057;-50
2022/08/24 05:39:11;;;;;;;6.75;4.43;;;17.60;61.60;;;14.53;78.46;95686.22;4975926;28;20068;-47
2022/08/24 05:41:41;;;;;;;8.70;4.35;;;18.00;61.20;;;14.78;77.88;95695.81;4973512;28;20052;-46
2022/08/24 05:44:07;;;;;;;7.05;4.18;;;18.20;60.70;;;15.03;77.23;95692.78;4998615;28;20117;-47
2022/08/24 05:46:34;;;;;;;9.75;4.07;;;18.60;60.30;;;15.35;76.03;95695.84;4990832;28;20025;-47
2022/08/24 05:49:01;;;;;;;6.70;4.13;;;18.90;59.90;;;15.62;75.01;95697.84;5000513;28;20037;-44
2022/08/24 05:51:31;;;;;;;7.80;4.15;;;19.20;59.60;;;15.93;74.64;95693.56;4973759;28;20064;-46
2022/08/24 05:53:59;;;;;;;7.93;4.30;;;19.50;59.30;;;16.24;72.98;95697.59;4998201;28;20025;-49
2022/08/24 05:56:28;;;;;;;6.93;4.32;;;19.90;58.80;;;16.56;72.93;95705.56;4990244;28;20048;-46
2022/08/24 05:59:03;;;;;;;6.03;4.60;;;20.20;58.50;;;16.91;71.14;95699.78;4999317;28;20101;-48
2022/08/24 06:01:33;;;;;;;5.28;3.75;;;20.60;58.00;;;17.22;69.92;95702.63;4969700;28;20105;-45
2022/08/24 06:04:02;;;;;;;8.57;4.35;;;21.00;57.50;;;17.49;68.33;95699.03;4982352;28;20049;-47
2022/08/24 06:06:28;;;;;;;6.35;4.18;;;21.40;57.00;;;17.80;68.05;95699.94;4982934;28;20029;-46
2022/08/24 06:08:58;;;;;;;8.48;4.40;;;21.80;56.50;;;18.18;66.78;95707.59;4992034;28;20155;-47
2022/08/24 06:11:36;;;;;;;6.93;4.68;;;22.10;55.90;;;18.53;66.18;95702.34;4983415;28;20077;-49
2022/08/24 06:14:15;;;;;;;6.38;3.75;;;22.50;55.40;;;18.90;65.39;95708.34;4966654;28;20029;-46
2022/08/24 06:16:45;;;;;;;7.13;3.95;;;22.90;54.90;;;19.14;63.56;95695.19;4973996;28;20037;-45
2022/08/24 06:19:18;;;;;;;6.63;3.78;;;23.30;54.40;;;19.39;63.28;95704.41;4988326;28;20029;-48
2022/08/24 06:21:54;;;;;;;6.57;3.92;;;23.60;53.80;;;19.64;61.91;95708.25;4978893;28;20029;-47
2022/08/24 06:27:20;;;;;;;4.20;3.80;;;24.20;52.50;;;20.04;59.04;95708.03;4990671;28;20591;-50
2022/08/24 06:30:10;;;;;;;4.82;3.63;;;24.50;51.80;;;19.94;59.73;95703.00;4986551;28;20395;-47
2022/08/24 06:32:42;;;;;;;5.00;3.70;;;24.80;51.10;;;20.21;57.46;95703.69;4957343;28;20088;-47
2022/08/24 06:35:11;;;;;;;;;;;25.00;50.30;;;20.31;56.66;95709.56;4991264;28;20052;-48
2022/08/24 06:37:37;;;;;;;5.18;3.88;;;25.20;50.50;;;20.60;57.06;95718.09;4986141;28;19905;-45
2022/08/24 06:40:09;;;;;;;3.95;3.47;;;25.50;49.70;;;20.62;56.93;95721.25;4973685;28;20495;-47
2022/08/24 06:42:35;;;;;;;5.28;3.38;;;25.60;49.00;;;20.86;54.66;95713.31;4988238;28;20072;-45
2022/08/24 06:45:02;;;;;;;6.18;3.67;;;25.90;48.50;;;21.09;54.03;95715.75;5010053;28;20083;-50
2022/08/24 06:47:34;;;;;;;8.60;3.78;;;26.10;47.90;;;21.21;53.36;95711.19;5009991;28;20040;-45
2022/08/24 06:50:03;;;;;;;7.10;3.97;;;26.30;47.20;;;21.29;53.06;95716.91;5006960;28;20075;-49
2022/08/24 06:52:38;;;;;;;4.88;3.25;;;26.50;46.70;;;21.40;53.18;95713.50;4992326;28;20037;-46
2022/08/24 06:55:08;;;;;;;4.00;3.60;;;26.60;46.00;;;21.47;52.27;95719.19;5010174;28;20583;-46
2022/08/24 06:57:34;;;;;;;4.07;3.67;;;26.90;45.70;;;21.61;52.99;95724.31;4979655;28;20037;-46
2022/08/24 07:00:00;;;;;;;4.68;3.60;;;27.00;45.30;;;21.71;52.00;95723.13;5010176;28;20032;-46
2022/08/24 07:02:29;;;;;;;4.47;3.50;;;27.20;44.90;;;21.77;52.09;95716.38;4992455;28;20033;-46
2022/08/24 07:04:55;;;;;;;4.97;3.55;;;27.40;44.40;;;21.55;52.04;95725.66;5009533;28;20403;-46
2022/08/24 07:07:21;;;;;;;4.20;3.60;;;27.50;43.90;;;21.32;51.74;95718.94;5009663;28;20032;-46
2022/08/24 07:09:49;;;;;;;9.05;3.60;;;27.70;43.40;;;21.64;51.92;95720.16;5010126;28;20026;-48
2022/08/24 07:12:18;;;;;;;5.75;3.53;;;27.80;43.00;;;21.91;51.15;95721.53;5009748;28;20426;-46
2022/08/24 07:14:44;;;;;;;4.25;3.30;;;27.90;42.60;;;21.80;51.42;95723.84;4990903;28;20021;-46
2022/08/24 07:17:10;;;;;;;5.13;3.50;;;28.10;42.30;;;21.71;50.89;95717.69;4972718;28;20530;-48
2022/08/24 07:19:38;;;;;;;3.85;3.40;;;28.20;42.00;;;22.09;50.75;95716.69;4991898;28;20061;-47
2022/08/24 07:22:04;;;;;;;5.22;3.70;;;28.30;41.60;;;22.13;49.38;95723.06;4963505;28;20037;-47
2022/08/24 07:24:32;;;;;;;3.65;3.25;;;28.40;41.20;;;22.34;48.68;95714.88;4990206;28;20468;-51
2022/08/24 07:26:58;;;;;;;6.38;3.40;;;28.50;40.60;;;22.29;48.94;95718.59;4956122;28;20045;-51
2022/08/24 07:29:38;;;;;;;4.75;3.72;;;28.60;40.30;;;22.37;49.80;95723.13;4990368;28;20021;-46
2022/08/24 07:32:04;;;;;;;4.15;3.30;;;28.70;40.00;;;22.56;49.40;95728.03;4990248;28;20044;-46
2022/08/24 07:34:36;;;;;;;4.60;3.40;;;28.90;40.00;;;22.39;50.08;95720.09;4960077;28;20105;-49
2022/08/24 07:37:04;;;;;;;4.85;4.03;;;28.90;39.80;;;22.39;50.50;95730.94;5001534;28;20097;-47
2022/08/24 07:39:30;;;;;;;4.63;3.95;;;29.00;39.60;;;22.51;49.42;95725.53;4976267;28;20053;-47
2022/08/24 07:41:56;;;;;;;4.72;4.32;;;29.10;39.30;;;22.83;49.29;95723.06;5002543;28;20056;-47
2022/08/24 07:44:25;;;;;;;4.40;3.75;;;29.20;39.20;;;22.74;49.09;95725.09;4979835;28;20035;-51
2022/08/24 07:46:53;;;;;;;6.40;4.00;;;29.30;38.90;;;22.61;48.95;95730.53;5009614;28;20036;-47
2022/08/24 07:49:19;;;;;;;5.13;3.95;;;29.40;38.70;;;22.36;50.06;95726.19;5013227;28;20017;-47
2022/08/24 07:51:52;;;;;;;5.28;4.28;;;29.50;38.50;;;22.54;49.15;95727.59;4995429;28;20040;-49
2022/08/24 07:54:19;;;;;;;6.22;4.03;;;29.50;38.40;;;22.77;50.24;95724.44;5012913;28;20092;-46
2022/08/24 07:56:46;;;;;;;4.40;4.00;;;29.60;38.40;;;22.63;49.22;95730.19;4977127;28;20117;-46
2022/08/24 07:59:21;;;;;;;4.75;4.00;;;29.60;38.00;;;22.58;48.54;95728.47;4992099;28;20029;-46
2022/08/24 08:01:49;;;;;;;6.45;4.30;;;29.70;37.70;;;22.57;48.89;95728.84;4975871;28;20025;-46
2022/08/24 08:04:17;;;;;;;15.05;5.60;;;29.70;37.50;;;22.81;48.46;95737.00;5006380;28;20041;-48
2022/08/24 08:06:43;;;;;;;7.30;4.20;;;29.80;37.50;;;23.13;48.73;95726.38;4995230;28;20770;-51
2022/08/24 08:09:09;;;;;;;12.82;4.55;;;29.90;37.50;;;23.42;48.09;95736.16;4991587;28;20013;-46
2022/08/24 08:11:35;;;;;;;5.20;4.07;;;30.10;37.40;;;23.63;47.80;95727.84;5002043;28;20040;-49
2022/08/24 08:14:01;;;;;;;7.00;4.25;;;30.20;37.20;;;23.74;46.73;95728.97;4991743;28;20807;-46
2022/08/24 08:16:30;;;;;;;4.68;4.28;;;30.40;37.00;;;23.67;46.92;95727.94;4992680;28;20123;-48
2022/08/24 08:19:01;;;;;;;4.45;3.92;;;30.50;36.70;;;23.89;47.03;95730.16;4992975;28;20425;-49
2022/08/24 08:24:17;;;;;;;7.28;3.80;;;30.70;36.40;;;24.30;46.41;95736.31;5000502;28;20036;-49
2022/08/24 08:26:49;;;;;;;6.38;4.07;;;30.90;36.20;;;24.28;45.89;95730.41;4981728;28;20030;-49
2022/08/24 08:29:18;;;;;;;6.53;3.80;;;31.00;35.90;;;24.63;45.69;95732.50;4969495;28;20380;-48
2022/08/24 08:31:46;;;;;;;4.18;3.78;;;31.10;35.80;;;24.92;44.03;95737.50;4972429;28;20477;-51
2022/08/24 08:34:13;;;;;;;4.35;3.95;;;31.30;35.50;;;25.02;43.42;95735.41;4991424;28;20022;-48
2022/08/24 08:36:41;;;;;;;4.10;3.63;;;31.50;35.10;;;25.05;43.62;95735.47;4990916;28;20118;-50
2022/08/24 08:39:11;;;;;;;4.60;4.20;;;31.60;34.80;;;24.94;43.61;95734.41;4992502;28;20428;-51
2022/08/24 08:42:13;;;;;;;5.00;4.30;;;31.80;34.40;;;24.75;44.10;95737.06;5004181;28;20488;-47
2022/08/24 08:45:13;;;;;;;4.03;3.28;;;31.90;34.10;;;25.08;44.14;95740.22;4983402;28;20449;-49
2022/08/24 08:48:12;;;;;;;4.22;3.50;;;31.90;34.10;;;25.27;42.77;95739.50;5011846;28;20021;-47
2022/08/24 08:51:24;;;;;;;4.43;4.03;;;32.00;34.10;;;25.53;42.12;95740.84;4994651;28;20025;-46
2022/08/24 08:54:57;;;;;;;6.10;3.70;;;32.10;33.90;;;25.31;43.55;95745.03;5010385;28;20029;-47
2022/08/24 08:57:50;;;;;;;5.22;3.85;;;32.30;33.60;;;25.56;42.31;95738.19;5011307;28;20280;-46
2022/08/24 09:00:26;;;;;;;4.80;3.88;;;32.40;33.50;;;25.81;42.83;95735.22;4995759;28;20021;-46
2022/08/24 09:03:25;;;;;;;4.28;3.60;;;32.50;33.30;;;25.97;41.51;95735.94;4978175;28;20033;-47
2022/08/24 09:06:53;;;;;;;5.15;3.53;;;32.60;33.10;;;26.00;40.40;95732.47;5011269;28;20159;-48
2022/08/24 09:10:11;;;;;;;5.20;3.70;;;32.70;33.00;;;26.04;41.30;95738.00;5011531;28;20047;-47
2022/08/24 09:13:01;;;;;;;4.40;3.60;;;32.80;32.80;;;25.91;41.71;95731.13;5011679;28;20392;-47
2022/08/24 09:16:09;;;;;;;6.78;4.05;;;32.90;32.60;;;25.96;41.44;95726.19;5011559;28;20376;-46
2022/08/24 09:18:55;;;;;;;6.95;3.70;;;33.00;32.50;;;25.95;42.18;95710.97;4982392;28;20033;-50
2022/08/24 09:22:11;;;;;;;4.93;3.50;;;33.10;32.20;;;26.21;41.57;95717.69;5010097;28;20037;-48
2022/08/24 09:24:52;;;;;;;5.32;3.50;;;33.10;32.00;;;26.60;40.96;95709.41;4993566;28;20029;-51
2022/08/24 09:27:50;;;;;;;4.70;3.85;;;33.30;32.10;;;26.53;40.41;95710.88;5011064;28;20024;-47
2022/08/24 09:30:31;;;;;;;6.38;3.85;;;33.40;32.40;;;26.51;39.89;95724.09;4976872;28;20025;-48
2022/08/24 09:33:29;;;;;;;6.05;3.85;;;33.50;31.40;;;26.36;39.52;95722.25;4987042;28;20030;-49
2022/08/24 09:36:56;;;;;;;4.35;3.50;;;33.50;31.20;;;26.43;39.49;95718.84;4994337;28;20116;-49
2022/08/24 09:40:30;;;;;;;3.70;3.40;;;33.50;30.90;;;26.67;38.55;95726.72;4993567;28;20171;-52
2022/08/24 09:43:37;;;;;;;4.90;3.35;;;33.60;30.90;;;26.23;40.84;95729.00;5010930;28;20543;-52
2022/08/24 09:47:26;;;;;;;3.83;2.95;;;33.70;30.60;;;26.72;39.45;95725.59;4983266;28;20029;-47
2022/08/24 09:50:10;;;;;;;4.47;3.70;;;33.50;31.00;;;26.59;39.30;95724.22;4999749;28;20064;-49
2022/08/24 09:53:31;;;;;;;4.90;3.00;;;33.60;30.80;;;26.68;39.75;95728.28;4986869;28;20030;-49
2022/08/24 09:56:50;;;;;;;4.75;2.90;;;33.60;30.80;;;26.94;38.58;95718.53;5006301;28;20418;-47
2022/08/24 10:00:12;;;;;;;4.43;2.90;;;33.70;30.50;;;26.93;37.35;95717.75;5010765;28;20026;-51
2022/08/24 10:03:35;;;;;;;3.95;3.38;;;33.80;30.00;;;26.68;37.84;95705.66;5009583;28;20432;-47
2022/08/24 10:06:50;;;;;;;3.63;3.00;;;33.80;29.70;;;27.24;37.15;95709.66;4992983;28;20059;-47
2022/08/24 10:09:47;;;;;;;5.88;3.00;;;34.00;29.80;;;26.65;36.26;95696.22;5001548;28;20021;-52
2022/08/24 10:13:12;;;;;;;5.22;2.90;;;34.20;29.20;;;26.79;36.56;95698.41;4976698;28;20022;-48
2022/08/24 10:16:37;;;;;;;3.03;2.83;;;34.30;28.90;;;27.22;35.69;95691.66;4975524;28;20580;-48
2022/08/24 10:19:18;;;;;;;3.97;2.75;;;34.40;28.80;;;27.36;35.54;95710.22;5002343;28;20418;-48
2022/08/24 10:22:33;;;;;;;4.13;3.00;;;34.50;28.50;;;27.58;35.03;95697.63;4990745;28;20357;-49
2022/08/24 10:25:31;;;;;;;3.53;2.70;;;34.70;28.60;;;28.04;33.18;95694.66;4983357;28;20061;-46
2022/08/24 10:28:30;;;;;;;4.57;2.80;;;34.80;28.30;;;27.72;33.91;95688.78;4981614;28;20021;-47
2022/08/24 10:31:08;;;;;;;5.03;3.13;;;34.90;27.70;;;27.62;34.78;95692.19;5000362;28;20021;-47
2022/08/24 10:34:42;;;;;;;3.97;2.72;;;35.00;27.70;;;27.62;34.47;95681.25;5009867;28;20036;-44
2022/08/24 10:41:59;;;;;;;3.30;3.00;;;35.00;27.60;;;27.64;33.68;95678.91;4978395;28;20091;-47
2022/08/24 10:45:32;;;;;;;4.10;3.03;;;35.10;27.50;;;27.00;34.68;95676.09;4974209;28;20045;-47
2022/08/24 10:48:28;;;;;;;2.90;2.70;;;35.10;27.40;;;27.58;34.47;95686.69;4996275;28;20384;-47
2022/08/24 10:51:30;;;;;;;6.15;3.15;;;35.00;27.20;;;28.09;34.44;95680.63;5002339;28;20021;-47
2022/08/24 10:53:57;;;;;;;4.30;3.23;;;35.10;27.50;;;27.82;34.02;95679.94;4991425;28;20034;-47
2022/08/24 10:57:17;;;;;;;3.15;2.85;;;35.10;27.20;;;27.98;33.43;95687.94;4988008;28;20287;-48
2022/08/24 11:00:17;;;;;;;3.72;2.88;;;35.20;27.20;;;27.90;33.78;95687.09;4981120;28;20554;-47
2022/08/24 11:02:47;;;;;;;4.95;3.00;;;35.30;27.10;;;28.12;32.62;95684.59;5009598;28;20053;-46
2022/08/24 11:05:52;;;;;;;2.97;2.78;;;35.30;26.70;;;28.16;33.03;95682.66;4992235;23;20566;-49
2022/08/24 11:08:33;;;;;;;4.57;2.60;;;35.40;26.70;;;28.50;34.06;95696.31;4969949;28;20048;-49
2022/08/24 11:11:21;;;;;;;4.93;3.35;;;35.60;26.80;;;28.59;32.58;95696.78;4975191;28;20029;-48
2022/08/24 11:14:11;;;;;;;2.97;2.67;;;35.80;26.80;;;29.02;33.37;95691.69;4961615;28;20045;-48